Kasterlee, Belgium
Current Conditions -  °F | °C
As of 1:25 PM on Wednesday 22 Oct 2014 (Local Time) from EBDT Reporting Station
Scattered Clouds Scattered Clouds  
Wind Chill: 54°   Ceiling: Unl
Heat Index: 54°   Visibility: 6mi
Dew Point: 45°   Wind: 14mph
Humidity: 72%   Direction: 280°W
Pressure: 30.12"   Gusts: NA
Location:  51.24°N, 4.97°E
Report Text: EBDT 221125Z 28012KT 9999 FEW022 SCT040 12/07 Q1020 BLU BLU TEMPO WHT
Loading
Personal Weather Stations






























Interactive Weather Map
Tropical Storm Tracking
New forecast layout! Learn more

10-Day Weather Forecast

Advertisements
Track Severe Weather on mobile